Time;durP1;ratioP1;P1;durP2;ratioP2;P2;SDS_P1;SDS_P2;PMS_P1;PMS_P2;Temp;Humidity;BMP_temperature;BMP_pressure;BME280_temperature;BME280_humidity;BME280_pressure;Samples;Min_cycle;Max_cycle;Signal;HPM_P1;HPM_P2
2022/03/28 00:00:38;;;;;;;;;;;;;;;-1.20;54.69;101465.70;1688247;83;20181;-61
2022/03/28 00:03:44;;;;;;;;;;;;;;;-1.22;54.61;101476.14;1688820;85;20224;-62
2022/03/28 00:06:50;;;;;;;;;;;;;;;-1.24;54.52;101463.24;1688016;84;20569;-62
2022/03/28 00:09:54;;;;;;;;;;;;;;;-1.26;54.57;101461.09;1694771;83;20232;-62
2022/03/28 00:13:00;;;;;;;;;;;;;;;-1.26;54.54;101468.70;1686290;84;20193;-62
2022/03/28 00:16:06;;;;;;;;;;;;;;;-1.27;54.43;101475.48;1689472;83;20206;-61
2022/03/28 00:19:11;;;;;;;;;;;;;;;-1.30;54.37;101474.30;1685595;84;20237;-62
2022/03/28 00:22:16;;;;;;;;;;;;;;;-1.33;54.37;101473.11;1688350;85;20193;-61
2022/03/28 00:25:23;;;;;;;;;;;;;;;-1.32;54.37;101477.52;1688019;84;20185;-61
2022/03/28 00:28:28;;;;;;;;;;;;;;;-1.33;54.29;101478.47;1689203;84;20242;-61
2022/03/28 00:31:34;;;;;;;;;;;;;;;-1.36;54.20;101478.13;1683186;84;20229;-60
2022/03/28 00:34:41;;;;;;;;;;;;;;;-1.38;54.26;101475.14;1688708;83;20620;-61
2022/03/28 00:37:45;;;;;;;;;;;;;;;-1.39;54.30;101470.23;1684702;84;20237;-62
2022/03/28 00:40:50;;;;;;;;;;;;;;;-1.40;54.41;101467.62;1685947;84;20493;-60
2022/03/28 00:44:01;;;;;;;;;;;;;;;-1.41;54.51;101472.11;1660875;85;20221;-62
2022/03/28 00:47:05;;;;;;;;;;;;;;;-1.42;54.64;101480.23;1683736;84;20212;-61
2022/03/28 00:50:12;;;;;;;;;;;;;;;-1.44;54.82;101493.73;1683396;83;20188;-61
2022/03/28 00:53:21;;;;;;;;;;;;;;;-1.43;54.89;101478.51;1676976;85;20534;-62
2022/03/28 00:56:28;;;;;;;;;;;;;;;-1.47;54.94;101489.02;1706286;83;20276;-63
2022/03/28 00:59:34;;;;;;;;;;;;;;;-1.52;54.99;101483.38;1698041;83;20181;-61
2022/03/28 01:02:40;;;;;;;;;;;;;;;-1.56;55.09;101485.82;1683627;85;20517;-61
2022/03/28 01:05:46;;;;;;;;;;;;;;;-1.59;55.21;101484.59;1692594;83;20221;-62
2022/03/28 01:08:50;;;;;;;;;;;;;;;-1.64;55.34;101482.62;1685149;85;20233;-61
2022/03/28 01:11:56;;;;;;;;;;;;;;;-1.65;55.44;101485.38;1684641;85;20237;-61
2022/03/28 01:15:05;;;;;;;;;;;;;;;-1.67;55.51;101481.89;1683471;83;20554;-62
2022/03/28 01:18:11;;;;;;;;;;;;;;;-1.70;55.61;101487.41;1683978;85;20184;-62
2022/03/28 01:21:18;;;;;;;;;;;;;;;-1.72;55.71;101493.30;1685013;83;20198;-62
2022/03/28 01:24:15;;;;;;;;;;;;;;;-1.74;55.85;101472.38;1683173;84;20204;-63
2022/03/28 01:27:08;;;;;;;;;;;;;;;-1.74;55.98;101475.05;1683202;85;20181;-61
2022/03/28 01:30:13;;;;;;;;;;;;;;;-1.74;56.06;101478.62;1684850;84;20238;-61
2022/03/28 01:33:18;;;;;;;;;;;;;;;-1.73;56.06;101482.19;1683730;85;20197;-62
2022/03/28 01:36:31;;;;;;;;;;;;;;;-1.74;56.07;101481.30;1683461;84;20205;-61
2022/03/28 01:39:35;;;;;;;;;;;;;;;-1.73;56.11;101481.69;1684660;83;20200;-62
2022/03/28 01:42:39;;;;;;;;;;;;;;;-1.72;56.12;101476.74;1683772;85;20233;-61
2022/03/28 01:45:45;;;;;;;;;;;;;;;-1.71;56.13;101469.54;1684410;84;20183;-62
2022/03/28 01:48:52;;;;;;;;;;;;;;;-1.74;56.06;101471.91;1685925;84;20201;-61
2022/03/28 01:51:57;;;;;;;;;;;;;;;-1.76;55.99;101467.08;1699749;84;20280;-61
2022/03/28 01:55:03;;;;;;;;;;;;;;;-1.79;56.04;101454.27;1700749;83;20197;-62
2022/03/28 01:58:09;;;;;;;;;;;;;;;-1.79;56.08;101448.90;1705117;84;20224;-62
2022/03/28 02:01:14;;;;;;;;;;;;;;;-1.80;56.17;101456.56;1697604;83;20518;-62
2022/03/28 02:04:19;;;;;;;;;;;;;;;-1.77;56.18;101461.78;1700582;84;20569;-62
2022/03/28 02:07:25;;;;;;;;;;;;;;;-1.77;56.16;101469.84;1700612;84;20197;-61
2022/03/28 02:10:31;;;;;;;;;;;;;;;-1.79;56.21;101470.37;1700562;83;20197;-61
2022/03/28 02:13:36;;;;;;;;;;;;;;;-1.80;56.27;101466.84;1698601;84;20542;-61
2022/03/28 02:16:42;;;;;;;;;;;;;;;-1.80;56.25;101475.34;1699952;83;20224;-61
2022/03/28 02:19:48;;;;;;;;;;;;;;;-1.82;56.27;101476.77;1694371;83;20208;-61
2022/03/28 02:22:53;;;;;;;;;;;;;;;-1.83;56.26;101475.03;1694332;84;20189;-63
2022/03/28 02:25:59;;;;;;;;;;;;;;;-1.86;56.32;101469.81;1699342;83;20181;-62
2022/03/28 02:29:07;;;;;;;;;;;;;;;-1.84;56.38;101480.47;1700008;84;20533;-61
2022/03/28 02:32:12;;;;;;;;;;;;;;;-1.82;56.42;101480.78;1700650;84;20545;-61
2022/03/28 02:35:20;;;;;;;;;;;;;;;-1.81;56.43;101483.86;1701537;82;20241;-62
2022/03/28 02:38:25;;;;;;;;;;;;;;;-1.81;56.51;101480.33;1715794;84;20213;-63
2022/03/28 02:41:31;;;;;;;;;;;;;;;-1.81;56.69;101490.56;1688938;84;20517;-61
2022/03/28 02:44:37;;;;;;;;;;;;;;;-1.77;56.79;101489.96;1687354;84;20205;-61
2022/03/28 02:47:42;;;;;;;;;;;;;;;-1.77;56.81;101497.55;1684529;85;20216;-61
2022/03/28 02:50:48;;;;;;;;;;;;;;;-1.76;56.79;101495.75;1686448;84;20217;-61
2022/03/28 02:53:53;;;;;;;;;;;;;;;-1.75;56.77;101505.07;1689188;85;20213;-62
2022/03/28 02:57:00;;;;;;;;;;;;;;;-1.74;56.71;101502.77;1686312;84;20229;-61
2022/03/28 03:00:10;;;;;;;;;;;;;;;-1.75;56.69;101503.73;1683462;84;20205;-61
2022/03/28 03:03:15;;;;;;;;;;;;;;;-1.77;56.68;101501.58;1687278;85;20202;-61
2022/03/28 03:06:20;;;;;;;;;;;;;;;-1.77;56.67;101503.38;1688126;83;20303;-63
2022/03/28 03:09:29;;;;;;;;;;;;;;;-1.77;56.71;101500.23;1688731;83;20232;-62
2022/03/28 03:12:33;;;;;;;;;;;;;;;-1.76;56.73;101497.09;1687359;85;20205;-62
2022/03/28 03:15:42;;;;;;;;;;;;;;;-1.77;56.71;101502.92;1686786;84;20225;-61
2022/03/28 03:18:45;;;;;;;;;;;;;;;-1.79;56.68;101510.16;1689347;83;20244;-62
2022/03/28 03:21:50;;;;;;;;;;;;;;;-1.79;56.71;101507.48;1684892;85;20213;-61
2022/03/28 03:24:55;;;;;;;;;;;;;;;-1.80;56.70;101517.82;1674407;84;20219;-62
2022/03/28 03:27:58;;;;;;;;;;;;;;;-1.80;56.72;101523.19;1682200;84;20217;-62
2022/03/28 03:31:04;;;;;;;;;;;;;;;-1.80;56.75;101524.53;1688442;84;20221;-62
2022/03/28 03:34:10;;;;;;;;;;;;;;;-1.79;56.82;101528.06;1688576;85;20581;-63
2022/03/28 03:37:17;;;;;;;;;;;;;;;-1.80;56.83;101529.02;1686269;81;20189;-62
2022/03/28 03:40:22;;;;;;;;;;;;;;;-1.82;56.84;101531.77;1687767;83;20558;-61
2022/03/28 03:43:28;;;;;;;;;;;;;;;-1.82;56.79;101532.23;1683594;85;20245;-61
2022/03/28 03:46:37;;;;;;;;;;;;;;;-1.84;56.72;101532.30;1660051;86;20192;-62
2022/03/28 03:49:43;;;;;;;;;;;;;;;-1.84;56.63;101532.80;1661196;86;20252;-64
2022/03/28 03:52:47;;;;;;;;;;;;;;;-1.84;56.65;101530.11;1660127;86;20203;-63
2022/03/28 03:55:51;;;;;;;;;;;;;;;-1.84;56.62;101520.23;1660296;86;20180;-62
2022/03/28 03:58:57;;;;;;;;;;;;;;;-1.85;56.62;101515.81;1649773;86;20203;-61
2022/03/28 04:02:07;;;;;;;;;;;;;;;-1.84;56.60;101519.38;1673099;86;20235;-63
2022/03/28 04:05:14;;;;;;;;;;;;;;;-1.85;56.67;101523.86;1687091;84;20214;-63
2022/03/28 04:08:21;;;;;;;;;;;;;;;-1.85;56.65;101527.01;1685619;85;20231;-62
2022/03/28 04:11:25;;;;;;;;;;;;;;;-1.83;56.71;101528.70;1685770;85;20187;-63
2022/03/28 04:14:30;;;;;;;;;;;;;;;-1.81;56.73;101522.77;1685878;85;20238;-63
2022/03/28 04:17:37;;;;;;;;;;;;;;;-1.77;56.80;101531.09;1670530;85;20231;-62
2022/03/28 04:20:42;;;;;;;;;;;;;;;-1.72;56.80;101537.12;1686214;85;20224;-64
2022/03/28 04:23:46;;;;;;;;;;;;;;;-1.68;56.82;101527.98;1686145;85;20206;-61
2022/03/28 04:26:55;;;;;;;;;;;;;;;-1.59;56.82;101532.06;1685619;85;20526;-63
2022/03/28 04:30:02;;;;;;;;;;;;;;;-1.53;56.73;101527.74;1685780;85;20297;-62
2022/03/28 04:33:11;;;;;;;;;;;;;;;-1.43;56.59;101524.16;1685327;85;20507;-62
2022/03/28 04:36:18;;;;;;;;;;;;;;;-1.36;56.47;101526.47;1689517;83;20235;-62
2022/03/28 04:39:26;;;;;;;;;;;;;;;-1.27;56.30;101518.45;1707421;81;20194;-63
2022/03/28 04:42:42;;;;;;;;;;;;;;;-1.17;56.20;101521.11;1710229;83;20536;-63
2022/03/28 04:45:48;;;;;;;;;;;;;;;-1.06;55.98;101529.52;1690243;84;20209;-62
2022/03/28 04:48:55;;;;;;;;;;;;;;;-0.98;55.61;101524.64;1707859;83;20224;-62
2022/03/28 04:52:00;;;;;;;;;;;;;;;-0.89;55.35;101526.87;1715771;82;20226;-64
2022/03/28 04:55:07;;;;;;;;;;;;;;;-0.81;54.65;101530.89;1713194;81;20277;-64
2022/03/28 04:58:13;;;;;;;;;;;;;;;-0.77;54.27;101522.21;1705924;83;20219;-65
2022/03/28 05:01:19;;;;;;;;;;;;;;;-0.68;53.92;101521.77;1706570;82;20761;-62
2022/03/28 05:04:27;;;;;;;;;;;;;;;-0.61;53.67;101532.59;1678793;84;20586;-64
2022/03/28 05:07:34;;;;;;;;;;;;;;;-0.52;53.25;101536.16;1678943;85;20219;-64
2022/03/28 05:10:38;;;;;;;;;;;;;;;-0.46;53.11;101537.22;1680829;84;20519;-65
2022/03/28 05:13:42;;;;;;;;;;;;;;;-0.38;53.03;101535.85;1693125;84;20233;-64
2022/03/28 05:16:50;;;;;;;;;;;;;;;-0.25;53.07;101528.02;1680298;85;20187;-64
2022/03/28 05:20:01;;;;;;;;;;;;;;;-0.15;52.83;101534.20;1675790;84;20250;-63
2022/03/28 05:23:10;;;;;;;;;;;;;;;-0.07;52.59;101525.26;1694814;84;20219;-64
2022/03/28 05:26:18;;;;;;;;;;;;;;;0.02;52.52;101515.80;1676804;85;20207;-64
2022/03/28 05:29:24;;;;;;;;;;;;;;;0.15;52.26;101511.52;1676743;85;20301;-63
2022/03/28 05:32:30;;;;;;;;;;;;;;;0.26;51.92;101514.95;1677154;85;20281;-63
2022/03/28 05:35:35;;;;;;;;;;;;;;;0.36;51.77;101519.78;1677329;85;20214;-64
2022/03/28 05:38:43;;;;;;;;;;;;;;;0.47;51.39;101511.98;1681139;80;20415;-65
2022/03/28 05:41:52;;;;;;;;;;;;;;;0.57;51.18;101505.61;1686674;84;20267;-64
2022/03/28 05:44:58;;;;;;;;;;;;;;;0.67;50.92;101513.08;1705830;83;20244;-64
2022/03/28 05:48:08;;;;;;;;;;;;;;;0.77;50.54;101512.09;1704216;84;20232;-63
2022/03/28 05:51:13;;;;;;;;;;;;;;;0.89;50.12;101516.30;1707467;82;20194;-62
2022/03/28 05:54:19;;;;;;;;;;;;;;;0.93;49.68;101500.83;1723482;82;20209;-63
2022/03/28 05:57:23;;;;;;;;;;;;;;;1.01;49.44;101512.93;1706305;82;20224;-63
2022/03/28 06:00:31;;;;;;;;;;;;;;;1.10;49.26;101509.69;1703253;82;20210;-58
2022/03/28 06:03:41;;;;;;;;;;;;;;;1.22;49.43;101503.58;1700035;82;20668;-59
2022/03/28 06:06:49;;;;;;;;;;;;;;;1.37;48.95;101489.20;1704316;84;20287;-58
2022/03/28 06:09:56;;;;;;;;;;;;;;;1.53;48.68;101500.83;1705936;83;20555;-62
2022/03/28 06:13:06;;;;;;;;;;;;;;;1.65;48.43;101501.05;1703065;83;20184;-62
2022/03/28 06:16:11;;;;;;;;;;;;;;;1.74;47.90;101511.28;1697775;82;20541;-61
2022/03/28 06:19:18;;;;;;;;;;;;;;;1.81;47.37;101520.77;1700577;84;20284;-63
2022/03/28 06:22:23;;;;;;;;;;;;;;;1.88;46.95;101518.94;1697058;84;20212;-65
2022/03/28 06:25:30;;;;;;;;;;;;;;;2.00;46.54;101518.18;1697742;84;20356;-62
2022/03/28 06:28:36;;;;;;;;;;;;;;;2.18;46.69;101507.61;1698402;84;20523;-62
2022/03/28 06:31:41;;;;;;;;;;;;;;;2.38;46.03;101514.48;1701902;82;20553;-63
2022/03/28 06:34:48;;;;;;;;;;;;;;;2.52;45.11;101504.50;1697188;83;20252;-65
2022/03/28 06:37:58;;;;;;;;;;;;;;;2.63;44.15;101495.23;1678356;85;20223;-61
2022/03/28 06:41:02;;;;;;;;;;;;;;;2.73;43.55;101485.57;1676983;83;20215;-63
2022/03/28 06:44:11;;;;;;;;;;;;;;;2.81;43.45;101490.47;1675090;85;20226;-65
2022/03/28 06:47:16;;;;;;;;;;;;;;;2.92;43.47;101494.22;1707801;83;20237;-63
2022/03/28 06:50:21;;;;;;;;;;;;;;;3.06;43.38;101509.53;1731755;81;20325;-57
2022/03/28 06:53:26;;;;;;;;;;;;;;;3.21;43.03;101513.06;1675067;85;20527;-61
2022/03/28 06:56:36;;;;;;;;;;;;;;;3.31;42.54;101504.25;1733069;81;20622;-60
2022/03/28 06:59:43;;;;;;;;;;;;;;;3.41;42.48;101493.17;1732401;81;20234;-63
2022/03/28 07:02:56;;;;;;;;;;;;;;;3.55;42.25;101490.39;1678584;83;20239;-61
2022/03/28 07:06:09;;;;;;;;;;;;;;;3.72;42.42;101484.72;1703527;83;20327;-63
2022/03/28 07:09:10;;;;;;;;;;;;;;;3.91;41.58;101471.64;1717754;83;20452;-67
2022/03/28 07:12:17;;;;;;;;;;;;;;;4.08;40.97;101474.02;1681880;85;20221;-60
2022/03/28 07:15:22;;;;;;;;;;;;;;;4.23;40.21;101470.22;1671358;84;20229;-61
2022/03/28 07:18:27;;;;;;;;;;;;;;;4.31;40.25;101466.98;1682928;84;20530;-62
2022/03/28 07:21:32;;;;;;;;;;;;;;;4.36;40.09;101472.94;1666154;86;20219;-65
2022/03/28 07:24:38;;;;;;;;;;;;;;;4.33;39.55;101471.30;1666734;86;20536;-65
2022/03/28 07:27:47;;;;;;;;;;;;;;;4.28;39.82;101458.56;1668017;86;20322;-63
2022/03/28 07:30:54;;;;;;;;;;;;;;;4.40;40.32;101461.77;1667041;86;20635;-62
2022/03/28 07:37:24;;;;;;;;;;;;;;;4.69;39.64;101472.34;1682269;84;20219;-62
2022/03/28 07:40:30;;;;;;;;;;;;;;;4.80;39.25;101459.73;1683320;82;20509;-61
2022/03/28 07:43:35;;;;;;;;;;;;;;;4.92;39.19;101474.21;1693732;84;20636;-62
2022/03/28 07:46:44;;;;;;;;;;;;;;;5.01;38.58;101445.91;1698414;83;20252;-63
2022/03/28 07:49:52;;;;;;;;;;;;;;;5.10;38.57;101446.59;1681012;84;20201;-66
2022/03/28 07:52:58;;;;;;;;;;;;;;;5.24;38.23;101441.47;1687430;82;20198;-62
2022/03/28 07:56:03;;;;;;;;;;;;;;;5.34;37.96;101433.02;1705283;83;20248;-58
2022/03/28 07:59:12;;;;;;;;;;;;;;;5.36;37.52;101440.56;1677972;83;20222;-64
2022/03/28 08:02:18;;;;;;;;;;;;;;;5.36;37.15;101421.04;1675707;84;20258;-63
2022/03/28 08:05:24;;;;;;;;;;;;;;;5.40;37.04;101408.98;1678892;84;20214;-63
2022/03/28 08:08:32;;;;;;;;;;;;;;;5.49;37.03;101396.52;1678695;85;20227;-65
2022/03/28 08:11:42;;;;;;;;;;;;;;;5.54;36.89;101392.48;1678716;84;20579;-62
2022/03/28 08:14:49;;;;;;;;;;;;;;;5.60;37.01;101382.97;1662039;84;20285;-64
2022/03/28 08:17:55;;;;;;;;;;;;;;;5.63;36.83;101371.38;1687022;83;20219;-65
2022/03/28 08:21:02;;;;;;;;;;;;;;;5.64;36.76;101366.34;1686810;84;20212;-65
2022/03/28 08:24:08;;;;;;;;;;;;;;;5.65;37.12;101372.62;1707940;83;20220;-66
2022/03/28 08:27:13;;;;;;;;;;;;;;;5.67;36.94;101357.95;1710163;82;20224;-68
2022/03/28 08:30:21;;;;;;;;;;;;;;;5.75;37.69;101358.69;1707079;82;20350;-67
2022/03/28 08:33:30;;;;;;;;;;;;;;;5.85;37.41;101341.56;1715809;82;20950;-64
2022/03/28 08:36:36;;;;;;;;;;;;;;;5.98;37.50;101337.36;1704552;83;20245;-68
2022/03/28 08:39:46;;;;;;;;;;;;;;;6.04;37.01;101339.09;1684450;84;20219;-69
2022/03/28 08:42:52;;;;;;;;;;;;;;;6.07;36.66;101333.41;1682176;83;20226;-66
2022/03/28 08:45:58;;;;;;;;;;;;;;;6.11;36.68;101324.52;1680431;85;20255;-66
2022/03/28 08:49:05;;;;;;;;;;;;;;;6.17;36.32;101326.73;1684166;85;20242;-67
2022/03/28 08:52:11;;;;;;;;;;;;;;;6.22;36.44;101327.23;1679980;85;20298;-68
2022/03/28 08:55:19;;;;;;;;;;;;;;;6.25;36.50;101324.26;1690662;82;20231;-68
2022/03/28 08:58:26;;;;;;;;;;;;;;;6.28;36.20;101302.25;1713813;83;20580;-71
2022/03/28 09:01:32;;;;;;;;;;;;;;;6.34;36.17;101290.90;1712102;82;20221;-65
2022/03/28 09:04:39;;;;;;;;;;;;;;;6.35;35.80;101291.25;1708748;83;20255;-61
2022/03/28 09:07:46;;;;;;;;;;;;;;;6.42;36.22;101303.85;1653643;86;20306;-61
2022/03/28 09:10:53;;;;;;;;;;;;;;;6.52;36.25;101298.87;1647395;86;20220;-64
2022/03/28 09:14:02;;;;;;;;;;;;;;;6.56;35.89;101294.92;1652545;85;20256;-64
2022/03/28 09:17:18;;;;;;;;;;;;;;;6.62;35.61;101293.52;1666768;86;20215;-64
2022/03/28 09:20:28;;;;;;;;;;;;;;;6.68;35.44;101284.84;1671251;85;20255;-62
2022/03/28 09:23:49;;;;;;;;;;;;;;;6.76;35.70;101269.61;1692891;83;20563;-64
2022/03/28 09:26:53;;;;;;;;;;;;;;;6.83;35.30;101285.80;1716464;83;20214;-61
2022/03/28 09:30:10;;;;;;;;;;;;;;;6.94;35.43;101254.94;1707504;82;20211;-64
2022/03/28 09:33:17;;;;;;;;;;;;;;;7.05;35.44;101235.81;1688338;84;20245;-64
2022/03/28 09:36:22;;;;;;;;;;;;;;;7.14;35.34;101233.65;1686732;85;20261;-62
2022/03/28 09:39:34;;;;;;;;;;;;;;;7.30;35.95;101229.47;1664838;83;20254;-65
2022/03/28 09:42:39;;;;;;;;;;;;;;;7.45;34.89;101224.54;1713623;83;20213;-64
2022/03/28 09:45:46;;;;;;;;;;;;;;;7.53;35.09;101218.75;1704184;83;20219;-66
2022/03/28 09:48:53;;;;;;;;;;;;;;;7.63;34.74;101222.05;1701561;84;20225;-64
2022/03/28 09:52:04;;;;;;;;;;;;;;;7.74;34.11;101212.41;1677595;84;20621;-65
2022/03/28 09:55:16;;;;;;;;;;;;;;;7.84;34.43;101216.02;1677064;85;20653;-64
2022/03/28 09:58:56;;;;;;;;;;;;;;;8.04;34.33;101208.28;1673183;82;20406;-62
2022/03/28 10:01:52;;;;;;;;;;;;;;;8.20;33.76;101213.54;1702033;82;20214;-64
2022/03/28 10:05:01;;;;;;;;;;;;;;;8.29;33.30;101211.88;1698920;83;20216;-56
2022/03/28 10:08:07;;;;;;;;;;;;;;;8.33;32.98;101198.30;1695872;82;20244;-63
2022/03/28 10:11:17;;;;;;;;;;;;;;;8.46;32.59;101193.44;1685085;84;20207;-63
2022/03/28 10:14:38;;;;;;;;;;;;;;;8.63;32.55;101195.45;1682515;82;20225;-56
2022/03/28 10:17:44;;;;;;;;;;;;;;;8.78;31.98;101191.30;1688402;83;20224;-61
2022/03/28 10:20:54;;;;;;;;;;;;;;;8.76;31.72;101193.30;1649919;85;20612;-61
2022/03/28 10:24:14;;;;;;;;;;;;;;;8.67;31.80;101185.46;1641808;87;20222;-62
2022/03/28 10:27:19;;;;;;;;;;;;;;;8.64;31.47;101190.38;1690917;84;20260;-62
2022/03/28 10:30:35;;;;;;;;;;;;;;;8.53;31.53;101159.97;1670174;86;20222;-60
2022/03/28 10:33:41;;;;;;;;;;;;;;;8.55;32.03;101151.14;1687760;85;20206;-65
2022/03/28 10:36:49;;;;;;;;;;;;;;;8.69;31.96;101144.38;1686744;85;20250;-62
2022/03/28 10:39:56;;;;;;;;;;;;;;;8.80;32.16;101141.52;1684419;85;20218;-61
2022/03/28 10:43:17;;;;;;;;;;;;;;;8.93;32.02;101136.58;1676186;85;20674;-62
2022/03/28 10:46:23;;;;;;;;;;;;;;;8.94;31.86;101126.03;1678135;85;20219;-61
2022/03/28 10:49:30;;;;;;;;;;;;;;;8.92;32.04;101119.85;1677496;84;20510;-62
2022/03/28 10:52:37;;;;;;;;;;;;;;;9.05;31.77;101110.84;1677851;85;20552;-61
2022/03/28 10:55:57;;;;;;;;;;;;;;;9.21;31.80;101101.52;1686669;84;20215;-62
2022/03/28 10:59:04;;;;;;;;;;;;;;;9.39;31.49;101093.39;1696767;84;20210;-62
2022/03/28 11:02:10;;;;;;;;;;;;;;;9.56;31.44;101088.48;1691721;83;20209;-63
2022/03/28 11:05:18;;;;;;;;;;;;;;;9.77;31.38;101085.82;1663036;84;20215;-65
2022/03/28 11:08:45;;;;;;;;;;;;;;;9.95;30.69;101079.88;1695189;83;20215;-60
2022/03/28 11:12:05;;;;;;;;;;;;;;;10.12;30.64;101057.17;1705477;83;20256;-64
2022/03/28 11:15:16;;;;;;;;;;;;;;;10.30;29.99;101034.77;1704990;83;20213;-62
2022/03/28 11:18:26;;;;;;;;;;;;;;;10.36;29.93;101037.37;1706060;83;20771;-65
2022/03/28 11:21:35;;;;;;;;;;;;;;;10.45;30.03;101020.85;1659480;84;20215;-68
2022/03/28 11:24:58;;;;;;;;;;;;;;;10.66;30.06;101007.30;1711948;81;20246;-64
2022/03/28 11:28:14;;;;;;;;;;;;;;;10.80;29.48;101002.09;1730854;83;20206;-63
2022/03/28 11:31:23;;;;;;;;;;;;;;;11.00;29.61;100994.50;1712272;82;20222;-63
2022/03/28 11:34:33;;;;;;;;;;;;;;;10.96;29.25;100982.14;1688587;84;20211;-59
2022/03/28 11:37:41;;;;;;;;;;;;;;;10.77;28.94;100994.70;1693305;84;20449;-59
2022/03/28 11:40:53;;;;;;;;;;;;;;;10.55;29.06;100986.03;1700783;82;20578;-60
2022/03/28 11:44:01;;;;;;;;;;;;;;;10.57;29.39;100972.19;1676826;85;20210;-59
2022/03/28 11:47:17;;;;;;;;;;;;;;;10.73;29.44;100967.31;1697079;82;20218;-58
2022/03/28 11:50:22;;;;;;;;;;;;;;;10.73;29.10;100966.81;1694952;83;20338;-58
2022/03/28 11:53:27;;;;;;;;;;;;;;;10.67;29.17;100957.02;1704739;82;20568;-61
2022/03/28 12:00:04;;;;;;;;;;;;;;;10.93;28.99;100929.05;1707120;84;20262;-60
2022/03/28 12:03:19;;;;;;;;;;;;;;;11.19;28.56;100923.00;1706383;84;20300;-54
2022/03/28 12:06:39;;;;;;;;;;;;;;;11.06;28.48;100906.17;1706225;84;20496;-54
2022/03/28 12:09:49;;;;;;;;;;;;;;;10.88;28.74;100884.89;1704798;82;20779;-55
2022/03/28 12:12:58;;;;;;;;;;;;;;;10.83;28.99;100879.88;1701712;83;20244;-55
2022/03/28 12:16:08;;;;;;;;;;;;;;;10.82;28.87;100863.62;1705682;82;20212;-57
2022/03/28 12:19:31;;;;;;;;;;;;;;;10.89;29.08;100848.25;1705833;83;20201;-58
2022/03/28 12:22:36;;;;;;;;;;;;;;;10.91;29.02;100849.78;1705853;84;20212;-59
2022/03/28 12:25:45;;;;;;;;;;;;;;;10.93;28.92;100835.92;1705258;83;20216;-60
2022/03/28 12:28:51;;;;;;;;;;;;;;;10.97;28.94;100831.84;1707102;82;20552;-59
2022/03/28 12:31:58;;;;;;;;;;;;;;;10.97;28.64;100812.16;1705481;83;20565;-61
2022/03/28 12:35:06;;;;;;;;;;;;;;;10.98;28.62;100802.04;1705720;83;20224;-60
2022/03/28 12:38:13;;;;;;;;;;;;;;;11.10;28.69;100800.71;1705825;84;20205;-58
2022/03/28 12:41:22;;;;;;;;;;;;;;;11.26;28.87;100791.11;1700578;83;20480;-60
2022/03/28 12:44:30;;;;;;;;;;;;;;;11.43;28.93;100787.38;1703635;83;20257;-61
2022/03/28 12:47:37;;;;;;;;;;;;;;;11.53;28.40;100769.70;1705094;82;20295;-58
2022/03/28 12:50:45;;;;;;;;;;;;;;;11.68;28.58;100769.91;1721774;81;20236;-59
2022/03/28 12:53:58;;;;;;;;;;;;;;;11.89;28.59;100790.80;1701997;83;20212;-58
2022/03/28 12:57:04;;;;;;;;;;;;;;;12.06;27.97;100755.42;1678271;85;20246;-60
2022/03/28 13:00:12;;;;;;;;;;;;;;;12.06;27.38;100777.37;1684092;83;20203;-59
2022/03/28 13:03:18;;;;;;;;;;;;;;;11.98;27.60;100749.44;1686853;82;20256;-60
2022/03/28 13:06:28;;;;;;;;;;;;;;;12.02;27.88;100749.92;1701624;81;20643;-63
2022/03/28 13:09:36;;;;;;;;;;;;;;;12.15;27.64;100742.00;1683630;82;20531;-59
2022/03/28 13:12:50;;;;;;;;;;;;;;;12.19;27.31;100728.27;1697542;82;20282;-56
2022/03/28 13:15:57;;;;;;;;;;;;;;;12.20;27.41;100724.48;1697954;83;20245;-60
2022/03/28 13:19:11;;;;;;;;;;;;;;;12.26;27.52;100707.83;1695614;82;20683;-59
2022/03/28 13:22:18;;;;;;;;;;;;;;;12.30;27.67;100692.20;1691125;82;20912;-59
2022/03/28 13:25:27;;;;;;;;;;;;;;;12.44;27.32;100683.19;1706036;82;20205;-62
2022/03/28 13:28:36;;;;;;;;;;;;;;;12.53;27.49;100672.48;1723807;82;20214;-61
2022/03/28 13:31:41;;;;;;;;;;;;;;;12.60;27.23;100655.62;1712018;81;20653;-57
2022/03/28 13:34:47;;;;;;;;;;;;;;;12.59;27.35;100648.41;1699232;82;20221;-59
2022/03/28 13:38:07;;;;;;;;;;;;;;;12.61;27.08;100655.95;1703651;82;20208;-60
2022/03/28 13:41:14;;;;;;;;;;;;;;;12.62;27.25;100653.53;1698119;83;20200;-60
2022/03/28 13:44:19;;;;;;;;;;;;;;;12.66;27.29;100640.30;1702707;82;20218;-59
2022/03/28 13:47:29;;;;;;;;;;;;;;;12.68;27.25;100629.48;1686077;83;20604;-59
2022/03/28 13:50:34;;;;;;;;;;;;;;;12.63;27.24;100627.80;1646718;86;20242;-60
2022/03/28 13:53:41;;;;;;;;;;;;;;;12.63;27.24;100618.69;1646411;87;20589;-59
2022/03/28 13:56:48;;;;;;;;;;;;;;;12.67;27.33;100616.77;1646974;86;20229;-59
2022/03/28 13:59:54;;;;;;;;;;;;;;;12.73;27.59;100603.66;1656874;85;20268;-63
2022/03/28 14:03:02;;;;;;;;;;;;;;;12.86;27.32;100603.90;1673043;85;20222;-61
2022/03/28 14:06:13;;;;;;;;;;;;;;;12.90;27.10;100599.76;1671773;85;20235;-62
2022/03/28 14:09:19;;;;;;;;;;;;;;;12.94;27.07;100591.97;1671611;84;20941;-64
2022/03/28 14:12:27;;;;;;;;;;;;;;;12.97;26.81;100593.83;1672626;85;20230;-59
2022/03/28 14:15:35;;;;;;;;;;;;;;;13.00;26.93;100581.63;1668672;85;20627;-64
2022/03/28 14:18:44;;;;;;;;;;;;;;;12.98;26.57;100576.84;1664151;84;20519;-64
2022/03/28 14:21:55;;;;;;;;;;;;;;;12.87;26.68;100569.91;1652973;86;20211;-63
2022/03/28 14:25:01;;;;;;;;;;;;;;;12.84;26.93;100558.43;1633122;87;20258;-63
2022/03/28 14:28:06;;;;;;;;;;;;;;;12.92;27.31;100552.31;1650958;86;20255;-64
2022/03/28 14:31:11;;;;;;;;;;;;;;;13.03;26.62;100555.19;1651756;85;20211;-64
2022/03/28 14:34:19;;;;;;;;;;;;;;;12.98;26.66;100538.36;1652728;87;20575;-62
2022/03/28 14:37:23;;;;;;;;;;;;;;;13.01;27.02;100527.02;1667154;86;20603;-62
2022/03/28 14:40:31;;;;;;;;;;;;;;;13.14;26.88;100528.09;1660487;85;20233;-61
2022/03/28 14:43:38;;;;;;;;;;;;;;;13.23;26.88;100522.83;1659762;86;20275;-62
2022/03/28 14:47:01;;;;;;;;;;;;;;;13.32;26.46;100517.56;1640164;86;20258;-64
2022/03/28 14:50:08;;;;;;;;;;;;;;;13.32;26.10;100507.06;1640367;86;20597;-62
2022/03/28 14:53:16;;;;;;;;;;;;;;;13.24;25.90;100508.57;1641316;87;20225;-61
2022/03/28 14:56:23;;;;;;;;;;;;;;;13.12;25.93;100497.19;1641096;86;20241;-63
2022/03/28 14:59:31;;;;;;;;;;;;;;;13.04;26.08;100490.41;1641318;86;20222;-64
2022/03/28 15:02:38;;;;;;;;;;;;;;;12.97;26.23;100485.28;1641676;87;20217;-60
2022/03/28 15:05:43;;;;;;;;;;;;;;;13.11;25.97;100481.72;1654992;85;20219;-62
2022/03/28 15:08:49;;;;;;;;;;;;;;;13.22;25.65;100479.03;1663328;86;20238;-61
2022/03/28 15:11:56;;;;;;;;;;;;;;;13.22;25.45;100474.91;1666614;86;20215;-60
2022/03/28 15:15:02;;;;;;;;;;;;;;;13.21;25.40;100478.69;1667332;85;20207;-65
2022/03/28 15:18:08;;;;;;;;;;;;;;;13.19;25.40;100465.13;1641477;87;20198;-61
2022/03/28 15:21:14;;;;;;;;;;;;;;;13.12;25.68;100467.47;1641966;86;20621;-60
2022/03/28 15:24:20;;;;;;;;;;;;;;;13.01;25.89;100456.44;1641448;87;20221;-61
2022/03/28 15:27:26;;;;;;;;;;;;;;;13.06;25.82;100452.60;1640367;87;20265;-62
2022/03/28 15:30:33;;;;;;;;;;;;;;;13.03;25.56;100447.46;1676443;84;20292;-63
2022/03/28 15:33:37;;;;;;;;;;;;;;;12.90;25.96;100442.27;1678652;85;20267;-64
2022/03/28 15:36:48;;;;;;;;;;;;;;;12.81;26.09;100446.16;1678450;84;20217;-63
2022/03/28 15:39:55;;;;;;;;;;;;;;;12.86;26.21;100435.47;1666246;85;20244;-61
2022/03/28 15:43:03;;;;;;;;;;;;;;;12.83;26.35;100432.56;1673577;86;20215;-61
2022/03/28 15:46:12;;;;;;;;;;;;;;;12.79;26.54;100429.02;1673037;84;20220;-62
2022/03/28 15:49:18;;;;;;;;;;;;;;;12.61;26.94;100423.88;1680450;84;20198;-63
2022/03/28 15:52:27;;;;;;;;;;;;;;;12.49;27.09;100415.78;1690860;84;20222;-61
2022/03/28 15:55:34;;;;;;;;;;;;;;;12.39;26.98;100407.47;1690946;85;20274;-63
2022/03/28 15:58:42;;;;;;;;;;;;;;;12.16;27.20;100410.28;1687821;84;20202;-63
2022/03/28 16:01:53;;;;;;;;;;;;;;;11.89;27.54;100408.11;1700586;82;20296;-61
2022/03/28 16:04:59;;;;;;;;;;;;;;;11.64;28.06;100399.70;1707079;84;20209;-59
2022/03/28 16:08:05;;;;;;;;;;;;;;;11.42;28.34;100399.13;1707854;83;20200;-61
2022/03/28 16:11:13;;;;;;;;;;;;;;;11.20;28.77;100400.81;1707867;83;20275;-61
2022/03/28 16:14:21;;;;;;;;;;;;;;;10.99;29.18;100403.31;1707239;83;20636;-63